createdAt,value
2022-10-05T00:02:52.341Z,86.24
2022-10-05T00:05:38.599Z,86.25
2022-10-05T00:08:24.718Z,86.14
2022-10-05T00:11:17.082Z,86.23
2022-10-05T00:13:44.946Z,86.06
2022-10-05T00:16:19.307Z,86.04
2022-10-05T00:18:51.760Z,86.00
2022-10-05T00:21:24.571Z,85.96
2022-10-05T00:24:00.633Z,86.00
2022-10-05T00:26:33.105Z,86.13
2022-10-05T00:29:02.463Z,86.29
2022-10-05T00:31:33.313Z,86.32
2022-10-05T00:34:05.916Z,86.16
2022-10-05T00:36:32.909Z,85.98
2022-10-05T00:39:03.279Z,85.83
2022-10-05T00:41:43.948Z,86.03
2022-10-05T00:44:46.897Z,85.61
2022-10-05T00:47:23.067Z,86.09
2022-10-05T00:50:25.362Z,86.13
2022-10-05T00:53:24.511Z,85.86
2022-10-05T00:55:59.168Z,85.91
2022-10-05T00:58:53.106Z,86.22
2022-10-05T01:01:33.238Z,85.82
2022-10-05T01:04:12.648Z,86.11
2022-10-05T01:07:04.235Z,85.80
2022-10-05T01:10:10.778Z,85.72
2022-10-05T01:15:51.528Z,85.74
2022-10-05T01:18:32.028Z,85.74
2022-10-05T01:21:21.084Z,85.67
2022-10-05T01:23:59.376Z,85.93
2022-10-05T01:26:43.366Z,85.79
2022-10-05T01:32:38.908Z,85.50
2022-10-05T01:35:21.350Z,85.26
2022-10-05T01:38:20.007Z,85.35
2022-10-05T01:41:11.423Z,85.44
2022-10-05T01:44:19.305Z,85.41
2022-10-05T01:46:49.632Z,85.71
2022-10-05T01:49:46.045Z,85.40
2022-10-05T01:52:21.564Z,85.35
2022-10-05T01:55:00.527Z,85.23
2022-10-05T01:57:45.581Z,85.00
2022-10-05T02:00:21.239Z,85.34
2022-10-05T02:02:57.074Z,85.33
2022-10-05T02:05:32.961Z,85.52
2022-10-05T02:08:08.164Z,85.24
2022-10-05T02:14:41.330Z,84.56
2022-10-05T02:17:17.267Z,85.24
2022-10-05T02:19:48.936Z,84.52
2022-10-05T02:22:32.609Z,84.89
2022-10-05T02:25:12.750Z,84.85
2022-10-05T02:27:58.640Z,84.78
2022-10-05T02:30:28.627Z,85.17
2022-10-05T02:33:09.311Z,84.79
2022-10-05T02:35:36.952Z,84.97
2022-10-05T02:38:38.032Z,85.54
2022-10-05T02:41:26.562Z,84.98
2022-10-05T02:44:00.985Z,84.65
2022-10-05T02:50:14.747Z,84.83
2022-10-05T02:53:06.368Z,84.69
2022-10-05T02:56:04.536Z,84.83
2022-10-05T02:59:00.638Z,84.74
2022-10-05T03:01:40.951Z,84.65
2022-10-05T03:04:26.817Z,84.99
2022-10-05T03:07:19.137Z,84.38
2022-10-05T03:10:01.628Z,84.79
2022-10-05T03:12:47.473Z,84.79
2022-10-05T03:15:23.499Z,85.00
2022-10-05T03:18:17.148Z,84.96
2022-10-05T03:20:53.480Z,84.86
2022-10-05T03:24:06.056Z,84.68
2022-10-05T03:26:46.554Z,84.68
2022-10-05T03:29:29.403Z,84.98
2022-10-05T03:32:38.432Z,84.76
2022-10-05T03:35:22.540Z,84.95
2022-10-05T03:38:04.695Z,84.80
2022-10-05T03:40:32.896Z,84.56
2022-10-05T03:43:26.472Z,84.73
2022-10-05T03:46:11.270Z,85.53
2022-10-05T03:48:55.458Z,85.35
2022-10-05T03:51:32.256Z,84.97
2022-10-05T03:54:33.943Z,84.92
2022-10-05T03:57:13.418Z,85.21
2022-10-05T04:00:17.745Z,85.00
2022-10-05T04:03:12.299Z,84.75
2022-10-05T04:05:55.664Z,85.05
2022-10-05T04:08:48.235Z,84.97
2022-10-05T04:14:55.129Z,84.53
2022-10-05T04:17:40.058Z,84.99
2022-10-05T04:20:24.976Z,84.78
2022-10-05T04:23:12.945Z,85.04
2022-10-05T04:25:48.828Z,84.62
2022-10-05T04:29:00.760Z,84.72
2022-10-05T04:31:52.315Z,85.31
2022-10-05T04:34:30.756Z,85.04
2022-10-05T04:37:04.582Z,84.95
2022-10-05T04:39:45.465Z,84.97
2022-10-05T04:42:32.888Z,85.13
2022-10-05T04:45:19.956Z,85.35
2022-10-05T04:48:15.239Z,85.31
2022-10-05T04:51:00.104Z,85.11
2022-10-05T04:53:48.761Z,85.49
2022-10-05T04:56:30.189Z,85.11
2022-10-05T04:59:24.868Z,85.10
2022-10-05T05:01:59.889Z,85.48
2022-10-05T05:07:50.133Z,85.01
2022-10-05T05:10:57.776Z,85.25
2022-10-05T05:14:15.450Z,85.38
2022-10-05T05:16:45.739Z,85.29
2022-10-05T05:19:33.913Z,85.36
2022-10-05T05:25:38.788Z,85.65
2022-10-05T05:28:09.809Z,85.21
2022-10-05T05:30:58.714Z,85.56
2022-10-05T05:34:02.954Z,85.46
2022-10-05T05:36:46.694Z,85.43
2022-10-05T05:39:31.431Z,85.48
2022-10-05T05:42:10.099Z,85.37
2022-10-05T05:44:50.904Z,85.73
2022-10-05T05:47:37.680Z,85.62
2022-10-05T05:53:27.236Z,85.75
2022-10-05T05:56:23.983Z,85.76
2022-10-05T05:59:20.008Z,85.93
2022-10-05T06:01:52.729Z,85.81
2022-10-05T06:04:41.349Z,85.57
2022-10-05T06:07:16.315Z,85.94
2022-10-05T06:09:49.921Z,85.49
2022-10-05T06:12:31.770Z,85.97
2022-10-05T06:15:13.934Z,85.69
2022-10-05T06:17:55.844Z,85.56
2022-10-05T06:20:48.940Z,85.62
2022-10-05T06:23:51.153Z,85.72
2022-10-05T06:26:28.532Z,85.36
2022-10-05T06:29:25.036Z,85.29
2022-10-05T06:32:05.880Z,85.29
2022-10-05T06:35:02.779Z,85.74
2022-10-05T06:37:54.982Z,85.59
2022-10-05T06:40:32.192Z,85.65
2022-10-05T06:43:17.018Z,85.95
2022-10-05T06:46:09.286Z,85.70
2022-10-05T06:49:03.943Z,85.64
2022-10-05T06:52:28.726Z,85.69
2022-10-05T06:55:19.847Z,85.79
2022-10-05T06:58:14.955Z,85.57
2022-10-05T07:00:58.446Z,85.92
2022-10-05T07:03:46.534Z,85.51
2022-10-05T07:06:24.094Z,85.90
2022-10-05T07:09:06.439Z,85.77
2022-10-05T07:11:51.302Z,85.48
2022-10-05T07:14:47.223Z,86.02
2022-10-05T07:17:34.560Z,85.82
2022-10-05T07:20:29.012Z,85.71
2022-10-05T07:23:09.557Z,85.16
2022-10-05T07:25:59.794Z,85.73
2022-10-05T07:28:47.110Z,85.57
2022-10-05T07:31:34.208Z,85.71
2022-10-05T07:34:09.742Z,85.45
2022-10-05T07:37:26.154Z,85.78
2022-10-05T07:40:18.041Z,85.51
2022-10-05T07:43:03.856Z,85.28
2022-10-05T07:46:00.875Z,85.62
2022-10-05T07:48:55.635Z,85.34
2022-10-05T07:51:34.946Z,85.46
2022-10-05T07:54:33.179Z,85.37
2022-10-05T07:57:14.765Z,85.72
2022-10-05T07:59:51.941Z,85.26
2022-10-05T08:02:57.285Z,85.36
2022-10-05T08:06:03.356Z,85.53
2022-10-05T08:08:39.740Z,85.54
2022-10-05T08:11:12.692Z,85.29
2022-10-05T08:13:49.716Z,85.09
2022-10-05T08:16:18.014Z,85.37
2022-10-05T08:19:08.391Z,85.01
2022-10-05T08:21:54.141Z,85.04
2022-10-05T08:25:00.218Z,85.20
2022-10-05T08:27:38.490Z,84.73
2022-10-05T08:30:13.293Z,85.29
2022-10-05T08:33:04.014Z,84.93
2022-10-05T08:35:47.303Z,85.16
2022-10-05T08:38:24.724Z,84.89
2022-10-05T08:41:26.612Z,85.24
2022-10-05T08:48:08.768Z,84.63
2022-10-05T08:50:56.765Z,84.73
2022-10-05T08:53:32.645Z,84.76
2022-10-05T08:56:30.529Z,84.60
2022-10-05T08:59:15.461Z,84.58
2022-10-05T09:02:18.393Z,84.30
2022-10-05T09:04:58.147Z,84.28
2022-10-05T09:07:41.982Z,83.96
2022-10-05T09:18:53.501Z,83.58
2022-10-05T09:22:01.488Z,83.65
2022-10-05T09:24:49.123Z,82.81
2022-10-05T09:27:19.034Z,82.80
2022-10-05T09:30:13.574Z,83.28
2022-10-05T09:33:07.707Z,82.40
2022-10-05T09:36:04.167Z,82.03
2022-10-05T09:38:57.492Z,82.64
2022-10-05T09:45:11.507Z,81.31
2022-10-05T09:48:03.970Z,81.86
2022-10-05T09:51:01.927Z,81.14
2022-10-05T09:53:41.289Z,79.87
2022-10-05T09:56:21.200Z,81.22
2022-10-05T09:59:07.380Z,80.63
2022-10-05T10:02:21.000Z,80.91
2022-10-05T10:05:26.781Z,80.83
2022-10-05T10:12:02.514Z,80.61
2022-10-05T10:14:45.548Z,80.01
2022-10-05T10:17:31.369Z,78.78
2022-10-05T10:20:26.201Z,80.67
2022-10-05T10:23:37.866Z,80.51
2022-10-05T10:26:48.528Z,80.89
2022-10-05T10:29:30.850Z,80.46
2022-10-05T10:32:28.820Z,79.92
2022-10-05T10:35:25.659Z,80.27
2022-10-05T10:37:52.820Z,80.61
2022-10-05T10:40:49.420Z,80.53
2022-10-05T10:43:30.053Z,80.25
2022-10-05T10:46:09.910Z,79.82
2022-10-05T10:48:54.476Z,78.81
2022-10-05T10:51:47.855Z,79.94
2022-10-05T10:54:27.051Z,80.12
2022-10-05T10:57:06.098Z,80.32
2022-10-05T10:59:32.855Z,79.94
2022-10-05T11:02:30.581Z,80.12
2022-10-05T11:05:23.289Z,80.17
2022-10-05T11:11:46.915Z,79.07
2022-10-05T11:14:34.488Z,78.63
2022-10-05T11:17:44.169Z,79.47
2022-10-05T11:20:32.033Z,79.50
2022-10-05T11:23:45.582Z,79.64
2022-10-05T11:26:49.296Z,79.09
2022-10-05T11:29:46.283Z,78.71
2022-10-05T11:33:02.744Z,79.07
2022-10-05T11:36:03.107Z,79.17
2022-10-05T11:38:59.484Z,79.52
2022-10-05T11:41:36.728Z,79.61
2022-10-05T11:44:47.997Z,79.34
2022-10-05T11:47:21.526Z,79.48
2022-10-05T11:49:57.336Z,79.06
2022-10-05T11:52:30.617Z,79.31
2022-10-05T11:55:35.057Z,79.10
2022-10-05T11:58:13.271Z,80.07
2022-10-05T12:00:46.332Z,78.89
2022-10-05T12:03:41.152Z,78.97
2022-10-05T12:06:11.866Z,79.75
2022-10-05T12:09:04.898Z,78.30
2022-10-05T12:11:56.997Z,79.10
2022-10-05T12:17:46.295Z,79.20
2022-10-05T12:20:46.410Z,78.71
2022-10-05T12:23:34.864Z,77.92
2022-10-05T12:26:05.377Z,78.73
2022-10-05T12:29:17.217Z,78.59
2022-10-05T12:31:50.158Z,77.55
2022-10-05T12:34:22.935Z,78.24
2022-10-05T12:37:04.116Z,78.38
2022-10-05T12:39:35.857Z,78.50
2022-10-05T12:42:40.847Z,78.81
2022-10-05T12:45:11.947Z,77.23
2022-10-05T12:48:00.464Z,77.35
2022-10-05T12:50:36.752Z,77.81
2022-10-05T12:53:14.913Z,78.40
2022-10-05T12:55:59.444Z,76.36
2022-10-05T12:58:57.101Z,77.36
2022-10-05T13:01:52.886Z,77.36
2022-10-05T13:04:57.001Z,77.33
2022-10-05T13:07:41.033Z,77.72
2022-10-05T13:10:12.070Z,76.93
2022-10-05T13:13:15.948Z,77.09
2022-10-05T13:16:04.733Z,77.68
2022-10-05T13:18:52.614Z,77.26
2022-10-05T13:21:33.638Z,77.80
2022-10-05T13:24:12.546Z,77.52
2022-10-05T13:26:46.189Z,77.05
2022-10-05T13:29:33.068Z,78.03
2022-10-05T13:32:24.238Z,76.88
2022-10-05T13:38:36.837Z,77.17
2022-10-05T13:41:27.494Z,78.13
2022-10-05T13:44:20.929Z,76.46
2022-10-05T13:47:06.073Z,77.56
2022-10-05T13:49:59.791Z,78.39
2022-10-05T13:53:15.259Z,77.55
2022-10-05T13:56:00.612Z,77.47
2022-10-05T13:58:56.019Z,77.56
2022-10-05T14:01:41.662Z,77.75
2022-10-05T14:04:18.126Z,77.63
2022-10-05T14:06:45.526Z,77.58
2022-10-05T14:09:34.258Z,76.13
2022-10-05T14:12:03.967Z,77.88
2022-10-05T14:14:45.184Z,77.97
2022-10-05T14:17:32.146Z,78.00
2022-10-05T14:22:59.316Z,77.27
2022-10-05T14:28:29.596Z,77.84
2022-10-05T14:31:03.467Z,76.22
2022-10-05T14:33:36.161Z,77.80
2022-10-05T14:36:36.321Z,78.01
2022-10-05T14:39:13.226Z,78.35
2022-10-05T14:44:41.548Z,77.97
2022-10-05T14:47:22.701Z,77.47
2022-10-05T14:50:15.485Z,77.90
2022-10-05T14:53:00.494Z,78.39
2022-10-05T14:55:56.994Z,77.68
2022-10-05T14:59:14.988Z,77.79
2022-10-05T15:02:35.461Z,77.73
2022-10-05T15:05:17.026Z,78.14
2022-10-05T15:07:49.228Z,78.43
2022-10-05T15:10:40.580Z,78.13
2022-10-05T15:13:25.588Z,77.75
2022-10-05T15:15:59.869Z,78.57
2022-10-05T15:18:57.237Z,78.01
2022-10-05T15:21:46.184Z,78.48
2022-10-05T15:24:47.481Z,78.17
2022-10-05T15:27:56.207Z,78.40
2022-10-05T15:30:24.462Z,78.12
2022-10-05T15:33:09.168Z,77.25
2022-10-05T15:35:42.778Z,78.74
2022-10-05T15:38:25.719Z,78.35
2022-10-05T15:41:06.901Z,77.80
2022-10-05T15:46:56.455Z,78.76
2022-10-05T15:49:27.878Z,78.89
2022-10-05T15:52:29.601Z,77.46
2022-10-05T15:58:46.988Z,77.21
2022-10-05T16:01:21.259Z,77.93
2022-10-05T16:03:54.219Z,78.11
2022-10-05T16:07:03.467Z,77.69
2022-10-05T16:09:54.076Z,78.91
2022-10-05T16:12:29.884Z,77.96
2022-10-05T16:15:08.769Z,77.86
2022-10-05T16:18:12.205Z,78.63
2022-10-05T16:20:51.105Z,79.22
2022-10-05T16:24:09.491Z,78.61
2022-10-05T16:26:57.177Z,78.50
2022-10-05T16:29:37.663Z,78.90
2022-10-05T16:32:24.034Z,77.76
2022-10-05T16:35:16.657Z,79.73
2022-10-05T16:37:56.511Z,79.06
2022-10-05T16:40:36.995Z,78.56
2022-10-05T16:43:14.032Z,78.80
2022-10-05T16:46:02.600Z,79.34
2022-10-05T16:48:50.183Z,79.50
2022-10-05T16:51:17.036Z,79.96
2022-10-05T16:54:01.150Z,80.03
2022-10-05T16:57:03.788Z,80.10
2022-10-05T17:00:01.681Z,79.94
2022-10-05T17:02:36.866Z,80.29
2022-10-05T17:05:36.500Z,79.77
2022-10-05T17:08:18.007Z,80.40
2022-10-05T17:10:56.881Z,80.58
2022-10-05T17:13:37.381Z,80.25
2022-10-05T17:16:36.491Z,80.02
2022-10-05T17:25:45.749Z,81.29
2022-10-05T17:28:41.572Z,80.27
2022-10-05T17:34:36.604Z,80.48
2022-10-05T17:37:26.992Z,80.27
2022-10-05T17:39:59.123Z,80.18
2022-10-05T17:42:28.653Z,80.10
2022-10-05T17:45:20.406Z,80.50
2022-10-05T17:48:01.454Z,80.21
2022-10-05T17:54:07.271Z,80.29
2022-10-05T17:56:46.743Z,80.28
2022-10-05T17:59:44.812Z,80.55
2022-10-05T18:02:23.237Z,80.45
2022-10-05T18:05:02.633Z,80.09
2022-10-05T18:07:41.255Z,79.89
2022-10-05T18:10:11.788Z,80.46
2022-10-05T18:12:50.021Z,80.73
2022-10-05T18:15:25.744Z,80.72
2022-10-05T18:18:02.284Z,80.81
2022-10-05T18:20:34.898Z,80.27
2022-10-05T18:23:02.833Z,80.08
2022-10-05T18:25:45.099Z,80.74
2022-10-05T18:28:35.891Z,80.83
2022-10-05T18:34:31.230Z,80.54
2022-10-05T18:37:14.823Z,80.03
2022-10-05T18:40:24.265Z,80.72
2022-10-05T18:46:32.243Z,80.64
2022-10-05T18:48:58.957Z,80.58
2022-10-05T18:51:57.908Z,79.82
2022-10-05T18:54:37.093Z,80.73
2022-10-05T19:00:51.289Z,80.41
2022-10-05T19:03:32.555Z,81.11
2022-10-05T19:06:24.503Z,80.77
2022-10-05T19:09:25.112Z,80.93
2022-10-05T19:12:14.944Z,81.01
2022-10-05T19:14:56.396Z,80.93
2022-10-05T19:17:31.915Z,80.48
2022-10-05T19:20:21.195Z,81.39
2022-10-05T19:23:00.739Z,81.53
2022-10-05T19:25:36.766Z,80.98
2022-10-05T19:28:17.284Z,81.27
2022-10-05T19:30:56.882Z,81.27
2022-10-05T19:33:56.497Z,80.47
2022-10-05T19:36:45.458Z,80.98
2022-10-05T19:39:36.066Z,81.12
2022-10-05T19:45:26.034Z,81.79
2022-10-05T19:48:15.298Z,81.62
2022-10-05T19:51:03.178Z,81.88
2022-10-05T19:53:38.616Z,81.65
2022-10-05T19:56:22.493Z,81.65
2022-10-05T19:59:02.279Z,81.75
2022-10-05T20:01:40.656Z,81.44
2022-10-05T20:04:38.629Z,82.01
2022-10-05T20:07:15.649Z,81.93
2022-10-05T20:10:31.963Z,82.32
2022-10-05T20:16:46.983Z,82.49
2022-10-05T20:19:59.356Z,81.54
2022-10-05T20:22:37.999Z,82.36
2022-10-05T20:25:19.801Z,82.31
2022-10-05T20:27:52.272Z,82.14
2022-10-05T20:30:30.773Z,82.71
2022-10-05T20:33:04.654Z,82.57
2022-10-05T20:35:32.880Z,81.91
2022-10-05T20:38:00.945Z,82.18
2022-10-05T20:40:30.235Z,81.77
2022-10-05T20:42:58.213Z,81.98
2022-10-05T20:45:25.036Z,81.67
2022-10-05T20:47:52.829Z,82.66
2022-10-05T20:50:27.503Z,82.73
2022-10-05T20:52:54.808Z,81.71
2022-10-05T20:55:22.890Z,82.14
2022-10-05T20:57:51.182Z,81.82
2022-10-05T21:00:18.865Z,82.13
2022-10-05T21:02:46.923Z,82.31
2022-10-05T21:05:20.506Z,82.43
2022-10-05T21:07:48.752Z,81.76
2022-10-05T21:10:17.094Z,81.93
2022-10-05T21:12:44.750Z,81.53
2022-10-05T21:15:12.805Z,81.71
2022-10-05T21:17:40.785Z,82.05
2022-10-05T21:20:33.018Z,82.33
2022-10-05T21:23:26.665Z,82.07
2022-10-05T21:25:59.871Z,82.03
2022-10-05T21:28:27.568Z,82.43
2022-10-05T21:30:55.161Z,82.40
2022-10-05T21:33:22.844Z,82.36
2022-10-05T21:38:42.780Z,82.02
2022-10-05T21:41:10.827Z,82.06
2022-10-05T21:43:39.874Z,82.48
2022-10-05T21:46:07.986Z,82.45
2022-10-05T21:48:37.471Z,82.33
2022-10-05T21:51:13.820Z,82.58
2022-10-05T21:53:48.719Z,82.05
2022-10-05T21:59:13.373Z,82.36
2022-10-05T22:01:46.949Z,82.62
2022-10-05T22:04:15.092Z,82.58
2022-10-05T22:07:18.524Z,82.72
2022-10-05T22:09:53.242Z,82.81
2022-10-05T22:12:21.278Z,82.26
2022-10-05T22:14:49.602Z,81.96
2022-10-05T22:17:28.402Z,82.56
2022-10-05T22:19:58.758Z,81.66
2022-10-05T22:22:33.101Z,82.46
2022-10-05T22:25:06.361Z,81.81
2022-10-05T22:27:35.755Z,81.70
2022-10-05T22:30:03.932Z,81.85
2022-10-05T22:32:30.863Z,81.86
2022-10-05T22:34:58.866Z,82.42
2022-10-05T22:37:50.857Z,81.86
2022-10-05T22:40:18.872Z,81.63
2022-10-05T22:42:46.942Z,81.66
2022-10-05T22:45:14.867Z,81.73
2022-10-05T22:47:43.004Z,81.88
2022-10-05T22:50:10.941Z,81.82
2022-10-05T22:53:03.902Z,81.46
2022-10-05T22:55:30.875Z,82.06
2022-10-05T22:57:58.821Z,83.33
